Hc Svea Kim — V2BB — position and weather

sailwx.info

Track history (hours):
 
Tides and Currents Weather Stations Pressure Air Temp Water Temp Dewpoint Dewpoint Depression Visibility Wind Speed Wind Dir Waves Ship Positions

Hc Svea Kim

Last reported at 2015-Jul-03 00:31 UTC. Time now 2015-Jul-05 15:05 UTC.
Position N 49°49' W 003°43'.

Length 129 m; draft 5 m.

Type: Cargo ship. MMSI: 304182000.

Date/timePositionNaut miles runAvg speedWind from/ knotsBaromVisibWave heightAir tempDewpointWater temp
2015-Jul-03 00:31N 49°49' W 003°43'3812.7
2015-Jul-02 21:34N 50°01' W 002°48'1110.4
2015-Jul-02 20:32N 50°04' W 002°32'11312.1
2015-Jul-02 11:13N 50°35' E 000°18'811.7
2015-Jul-02 10:33N 50°37' E 000°29'1111.1
2015-Jul-02 09:33N 50°42' E 000°45'1111.2
2015-Jul-02 08:33N 50°49' E 000°59'1211.5
2015-Jul-02 07:31N 50°57' E 001°13'1213.0
2015-Jul-02 06:33N 51°05' E 001°29'1312.6
2015-Jul-02 05:33N 51°13' E 001°44'1110.7
2015-Jul-02 04:33N 51°23' E 001°52'9 9.3
2015-Jul-02 03:34N 51°30' E 002°00'9 9.0
2015-Jul-02 02:34N 51°37' E 002°10'29 8.9
2015-Jul-01 23:19N 51°58' E 002°41'2110.7
2015-Jul-01 21:20N 52°04' E 003°14'911.4
2015-Jul-01 20:31N 52°04' E 003°30'1212.2
2015-Jul-01 19:33N 52°03' E 003°49'1212.4
2015-Jul-01 18:34N 51°58' E 004°08'1010.4
2015-Jul-01 17:33N 51°54' E 004°23'0 0.0
2015-Jul-01 16:33N 51°54' E 004°23'0 0.0
2015-Jul-01 15:33N 51°54' E 004°23'0 0.0
2015-Jul-01 14:33N 51°54' E 004°23'0 0.0
2015-Jul-01 13:33N 51°54' E 004°23'0 0.0
2015-Jul-01 12:33N 51°54' E 004°23'0 0.0
2015-Jul-01 11:33N 51°54' E 004°23'0 0.0
2015-Jul-01 10:33N 51°54' E 004°23'0 0.0
2015-Jul-01 09:33N 51°54' E 004°23'0 0.0
2015-Jul-01 08:33N 51°54' E 004°23'0 0.0
2015-Jul-01 07:33N 51°54' E 004°23'0 0.0
2015-Jul-01 06:33N 51°54' E 004°23'0 0.0
2015-Jul-01 05:33N 51°54' E 004°23'5 4.6
2015-Jul-01 04:34N 51°55' E 004°15'1010.1
2015-Jul-01 03:33N 51°60' E 004°01'9 9.0
2015-Jul-01 02:33N 51°57' E 003°47'1 1.4
2015-Jul-01 01:33N 51°56' E 003°46'0 0.0
2015-Jul-01 00:30N 51°56' E 003°46'0 0.1
2015-Jun-30 23:33N 51°56' E 003°45'0 0.1
2015-Jun-30 22:15N 51°56' E 003°45'0 0.1
2015-Jun-30 21:24N 51°56' E 003°45'0 0.0
2015-Jun-30 20:30N 51°56' E 003°45'0 0.0
2015-Jun-30 19:30N 51°56' E 003°45'0 0.0
2015-Jun-30 18:30N 51°56' E 003°45'0 0.0
2015-Jun-30 17:33N 51°56' E 003°45'0 0.0
2015-Jun-30 16:33N 51°56' E 003°45'0 0.1
2015-Jun-30 15:18N 51°56' E 003°46'0 0.1
2015-Jun-30 14:33N 51°56' E 003°46'0 0.0
2015-Jun-30 13:33N 51°56' E 003°46'0 0.0
2015-Jun-30 12:33N 51°56' E 003°46'0 0.0
2015-Jun-30 11:21N 51°56' E 003°46'0 0.1
2015-Jun-30 10:33N 51°56' E 003°45'0 0.1
2015-Jun-30 09:27N 51°56' E 003°45'0 0.1
2015-Jun-30 08:06N 51°56' E 003°45'0 0.0
2015-Jun-30 07:27N 51°56' E 003°45'0 0.0
2015-Jun-30 06:33N 51°56' E 003°45'0 0.0
2015-Jun-30 05:33N 51°56' E 003°45'0 0.2
2015-Jun-30 04:33N 51°56' E 003°46'8 8.1
2015-Jun-30 03:33N 52°04' E 003°46'1110.8
2015-Jun-30 02:33N 52°15' E 003°46'1010.4
2015-Jun-30 01:33N 52°25' E 003°49'1010.2
2015-Jun-30 00:33N 52°35' E 003°53'10 9.7
2015-Jun-29 23:33N 52°45' E 003°56'1110.5
2015-Jun-29 22:33N 52°55' E 003°59'1110.9
2015-Jun-29 21:33N 53°04' E 004°10'2211.1
2015-Jun-29 19:33N 53°22' E 004°31'1111.0
2015-Jun-29 18:33N 53°30' E 004°43'1211.6
2015-Jun-29 17:33N 53°34' E 005°01'1111.5
2015-Jun-29 16:33N 53°38' E 005°20'1111.2
2015-Jun-29 15:33N 53°42' E 005°38'1110.9
2015-Jun-29 14:33N 53°45' E 005°55'1111.1
2015-Jun-29 13:32N 53°49' E 006°13'1312.4
2015-Jun-29 12:29N 53°53' E 006°34'4012.0
2015-Jun-29 09:08N 54°02' E 007°41'711.5
2015-Jun-29 08:29N 54°02' E 007°54'1111.5
2015-Jun-29 07:32N 54°00' E 008°12'9 9.8
2015-Jun-29 06:33N 53°59' E 008°28'1010.2
2015-Jun-29 05:33N 53°53' E 008°43'1312.9
2015-Jun-29 04:33N 53°52' E 009°04'4 3.7
2015-Jun-29 03:33N 53°54' E 009°10'1 0.8
2015-Jun-29 02:28N 53°55' E 009°11'0 0.0
2015-Jun-29 01:31N 53°55' E 009°11'0 0.0
2015-Jun-29 00:31N 53°55' E 009°11'0 0.0
2015-Jun-28 23:31N 53°55' E 009°11'0 0.0
2015-Jun-28 22:28N 53°55' E 009°11'0 0.0
2015-Jun-28 21:28N 53°55' E 009°11'0 0.0
2015-Jun-28 20:31N 53°55' E 009°11'0 0.0
2015-Jun-28 19:31N 53°55' E 009°11'0 0.0
2015-Jun-28 18:31N 53°55' E 009°11'0 0.0
2015-Jun-28 17:34N 53°55' E 009°11'0 0.4
2015-Jun-28 16:33N 53°55' E 009°11'8 8.3
2015-Jun-28 15:33N 54°02' E 009°18'9 7.8
2015-Jun-28 14:23N 54°10' E 009°26'5 5.8
2015-Jun-28 13:32N 54°12' E 009°34'7 7.2
2015-Jun-28 12:33N 54°18' E 009°41'6 6.1
2015-Jun-28 11:33N 54°22' E 009°49'6 6.5
2015-Jun-28 10:33N 54°21' E 010°00'5 4.9
2015-Jun-28 09:33N 54°22' E 010°08'1 0.9
2015-Jun-28 08:33N 54°22' E 010°10'1 0.6
2015-Jun-28 07:32N 54°23' E 010°11'0 0.0
2015-Jun-28 06:32N 54°23' E 010°11'7 6.8
2015-Jun-28 05:33N 54°29' E 010°16'4 3.9
2015-Jun-28 04:33N 54°31' E 010°21'10 9.3
2015-Jun-28 03:29N 54°35' E 010°37'1010.3
2015-Jun-28 02:31N 54°36' E 010°54'1010.0
2015-Jun-28 01:33N 54°36' E 011°11'10 9.9
2015-Jun-28 00:33N 54°32' E 011°26'10 9.8
2015-Jun-27 23:33N 54°28' E 011°42'10 9.7
2015-Jun-27 22:33N 54°26' E 011°58'9 9.2
2015-Jun-27 21:33N 54°32' E 012°11'7911.2
2015-Jun-27 14:33N 55°10' E 014°11'1411.7
2015-Jun-27 13:23N 55°20' E 014°26'1011.6
2015-Jun-27 12:32N 55°28' E 014°37'1111.6
2015-Jun-27 11:34N 55°33' E 014°54'1211.5
2015-Jun-27 10:33N 55°39' E 015°12'2511.3
2015-Jun-27 08:19N 55°51' E 015°51'9711.1
2015-Jun-26 23:33N 57°12' E 017°29'  
Track history (hours):
 
Tides and Currents Weather Stations Pressure Air Temp Water Temp Dewpoint Dewpoint Depression Visibility Wind Speed Wind Dir Waves Ship Positions

Hc Svea Kim

Last reported at 2015-Jul-03 00:31 UTC. Time now 2015-Jul-05 15:05 UTC.
Position N 49°49' W 003°43'.

Length 129 m; draft 5 m.

Type: Cargo ship. MMSI: 304182000.

Date/timePositionNaut miles runAvg speedWind from/ knotsBaromVisibWave heightAir tempDewpointWater temp
2015-Jul-03 00:31N 49°49' W 003°43'3812.7
2015-Jul-02 21:34N 50°01' W 002°48'1110.4
2015-Jul-02 20:32N 50°04' W 002°32'11312.1
2015-Jul-02 11:13N 50°35' E 000°18'811.7
2015-Jul-02 10:33N 50°37' E 000°29'1111.1
2015-Jul-02 09:33N 50°42' E 000°45'1111.2
2015-Jul-02 08:33N 50°49' E 000°59'1211.5
2015-Jul-02 07:31N 50°57' E 001°13'1213.0
2015-Jul-02 06:33N 51°05' E 001°29'1312.6
2015-Jul-02 05:33N 51°13' E 001°44'1110.7
2015-Jul-02 04:33N 51°23' E 001°52'9 9.3
2015-Jul-02 03:34N 51°30' E 002°00'9 9.0
2015-Jul-02 02:34N 51°37' E 002°10'29 8.9
2015-Jul-01 23:19N 51°58' E 002°41'2110.7
2015-Jul-01 21:20N 52°04' E 003°14'911.4
2015-Jul-01 20:31N 52°04' E 003°30'1212.2
2015-Jul-01 19:33N 52°03' E 003°49'1212.4
2015-Jul-01 18:34N 51°58' E 004°08'1010.4
2015-Jul-01 17:33N 51°54' E 004°23'0 0.0
2015-Jul-01 16:33N 51°54' E 004°23'0 0.0
2015-Jul-01 15:33N 51°54' E 004°23'0 0.0
2015-Jul-01 14:33N 51°54' E 004°23'0 0.0
2015-Jul-01 13:33N 51°54' E 004°23'0 0.0
2015-Jul-01 12:33N 51°54' E 004°23'0 0.0
2015-Jul-01 11:33N 51°54' E 004°23'0 0.0
2015-Jul-01 10:33N 51°54' E 004°23'0 0.0
2015-Jul-01 09:33N 51°54' E 004°23'0 0.0
2015-Jul-01 08:33N 51°54' E 004°23'0 0.0
2015-Jul-01 07:33N 51°54' E 004°23'0 0.0
2015-Jul-01 06:33N 51°54' E 004°23'0 0.0
2015-Jul-01 05:33N 51°54' E 004°23'5 4.6
2015-Jul-01 04:34N 51°55' E 004°15'1010.1
2015-Jul-01 03:33N 51°60' E 004°01'9 9.0
2015-Jul-01 02:33N 51°57' E 003°47'1 1.4
2015-Jul-01 01:33N 51°56' E 003°46'0 0.0
2015-Jul-01 00:30N 51°56' E 003°46'0 0.1
2015-Jun-30 23:33N 51°56' E 003°45'0 0.1
2015-Jun-30 22:15N 51°56' E 003°45'0 0.1
2015-Jun-30 21:24N 51°56' E 003°45'0 0.0
2015-Jun-30 20:30N 51°56' E 003°45'0 0.0
2015-Jun-30 19:30N 51°56' E 003°45'0 0.0
2015-Jun-30 18:30N 51°56' E 003°45'0 0.0
2015-Jun-30 17:33N 51°56' E 003°45'0 0.0
2015-Jun-30 16:33N 51°56' E 003°45'0 0.1
2015-Jun-30 15:18N 51°56' E 003°46'0 0.1
2015-Jun-30 14:33N 51°56' E 003°46'0 0.0
2015-Jun-30 13:33N 51°56' E 003°46'0 0.0
2015-Jun-30 12:33N 51°56' E 003°46'0 0.0
2015-Jun-30 11:21N 51°56' E 003°46'0 0.1
2015-Jun-30 10:33N 51°56' E 003°45'0 0.1
2015-Jun-30 09:27N 51°56' E 003°45'0 0.1
2015-Jun-30 08:06N 51°56' E 003°45'0 0.0
2015-Jun-30 07:27N 51°56' E 003°45'0 0.0
2015-Jun-30 06:33N 51°56' E 003°45'0 0.0
2015-Jun-30 05:33N 51°56' E 003°45'0 0.2
2015-Jun-30 04:33N 51°56' E 003°46'8 8.1
2015-Jun-30 03:33N 52°04' E 003°46'1110.8
2015-Jun-30 02:33N 52°15' E 003°46'1010.4
2015-Jun-30 01:33N 52°25' E 003°49'1010.2
2015-Jun-30 00:33N 52°35' E 003°53'10 9.7
2015-Jun-29 23:33N 52°45' E 003°56'1110.5
2015-Jun-29 22:33N 52°55' E 003°59'1110.9
2015-Jun-29 21:33N 53°04' E 004°10'2211.1
2015-Jun-29 19:33N 53°22' E 004°31'1111.0
2015-Jun-29 18:33N 53°30' E 004°43'1211.6
2015-Jun-29 17:33N 53°34' E 005°01'1111.5
2015-Jun-29 16:33N 53°38' E 005°20'1111.2
2015-Jun-29 15:33N 53°42' E 005°38'1110.9
2015-Jun-29 14:33N 53°45' E 005°55'1111.1
2015-Jun-29 13:32N 53°49' E 006°13'1312.4
2015-Jun-29 12:29N 53°53' E 006°34'4012.0
2015-Jun-29 09:08N 54°02' E 007°41'711.5
2015-Jun-29 08:29N 54°02' E 007°54'1111.5
2015-Jun-29 07:32N 54°00' E 008°12'9 9.8
2015-Jun-29 06:33N 53°59' E 008°28'1010.2
2015-Jun-29 05:33N 53°53' E 008°43'1312.9
2015-Jun-29 04:33N 53°52' E 009°04'4 3.7
2015-Jun-29 03:33N 53°54' E 009°10'1 0.8
2015-Jun-29 02:28N 53°55' E 009°11'0 0.0
2015-Jun-29 01:31N 53°55' E 009°11'0 0.0
2015-Jun-29 00:31N 53°55' E 009°11'0 0.0
2015-Jun-28 23:31N 53°55' E 009°11'0 0.0
2015-Jun-28 22:28N 53°55' E 009°11'0 0.0
2015-Jun-28 21:28N 53°55' E 009°11'0 0.0
2015-Jun-28 20:31N 53°55' E 009°11'0 0.0
2015-Jun-28 19:31N 53°55' E 009°11'0 0.0
2015-Jun-28 18:31N 53°55' E 009°11'0 0.0
2015-Jun-28 17:34N 53°55' E 009°11'0 0.4
2015-Jun-28 16:33N 53°55' E 009°11'8 8.3
2015-Jun-28 15:33N 54°02' E 009°18'9 7.8
2015-Jun-28 14:23N 54°10' E 009°26'5 5.8
2015-Jun-28 13:32N 54°12' E 009°34'7 7.2
2015-Jun-28 12:33N 54°18' E 009°41'6 6.1
2015-Jun-28 11:33N 54°22' E 009°49'6 6.5
2015-Jun-28 10:33N 54°21' E 010°00'5 4.9
2015-Jun-28 09:33N 54°22' E 010°08'1 0.9
2015-Jun-28 08:33N 54°22' E 010°10'1 0.6
2015-Jun-28 07:32N 54°23' E 010°11'0 0.0
2015-Jun-28 06:32N 54°23' E 010°11'7 6.8
2015-Jun-28 05:33N 54°29' E 010°16'4 3.9
2015-Jun-28 04:33N 54°31' E 010°21'10 9.3
2015-Jun-28 03:29N 54°35' E 010°37'1010.3
2015-Jun-28 02:31N 54°36' E 010°54'1010.0
2015-Jun-28 01:33N 54°36' E 011°11'10 9.9
2015-Jun-28 00:33N 54°32' E 011°26'10 9.8
2015-Jun-27 23:33N 54°28' E 011°42'10 9.7
2015-Jun-27 22:33N 54°26' E 011°58'9 9.2
2015-Jun-27 21:33N 54°32' E 012°11'7911.2
2015-Jun-27 14:33N 55°10' E 014°11'1411.7
2015-Jun-27 13:23N 55°20' E 014°26'1011.6
2015-Jun-27 12:32N 55°28' E 014°37'1111.6
2015-Jun-27 11:34N 55°33' E 014°54'1211.5
2015-Jun-27 10:33N 55°39' E 015°12'2511.3
2015-Jun-27 08:19N 55°51' E 015°51'9711.1
2015-Jun-26 23:33N 57°12' E 017°29'  

Dump ship's entire track history